Thomson Dream — 9HA2381 — position and weather

sailwx.info

Track history (hours):
 
Tides and Currents Weather Stations Pressure Air Temp Water Temp Dewpoint Dewpoint Depression Visibility Wind Speed Wind Dir Waves Ship Positions

Thomson Dream

Last reported at 2017-Nov-20 00:26 UTC. Time now 2017-Nov-20 23:15 UTC.
Position N 28°48' W 015°51'.

Length 243 m; draft 7.6 m.

Type: Ship. MMSI: 248480975.

Date/timePositionNaut miles runAvg speedWind from/ knotsBaromVisibWave heightAir tempDewpointWater temp
2017-Nov-20 00:26N 28°48' W 015°51'716.3
2017-Nov-20 00:00N 28°48' W 015°43'917.1
2017-Nov-19 23:30N 28°48' W 015°33'917.2
2017-Nov-19 23:00N 28°48' W 015°23'917.1
2017-Nov-19 22:30N 28°49' W 015°13'816.8
2017-Nov-19 22:00N 28°49' W 015°04'31 1.6
2017-Nov-19 02:29N 28°25' W 014°41'816.5
2017-Nov-19 02:00N 28°20' W 014°49'815.9
2017-Nov-19 01:30N 28°13' W 014°53'714.8
2017-Nov-19 01:00N 28°07' W 014°57'611.5
2017-Nov-19 00:30N 28°06' W 015°03'612.8
2017-Nov-19 00:01N 28°07' W 015°10'816.7
2017-Nov-18 23:31N 28°07' W 015°20'5 9.7
2017-Nov-18 23:00N 28°08' W 015°25'1 1.2
2017-Nov-18 22:23N 28°08' W 015°25'0 0.0
2017-Nov-18 21:53N 28°08' W 015°25'0 0.0
2017-Nov-18 21:26N 28°08' W 015°25'0 0.0
2017-Nov-18 20:56N 28°08' W 015°25'0 0.0
2017-Nov-18 20:26N 28°08' W 015°25'0 0.0
2017-Nov-18 19:56N 28°08' W 015°25'0 0.0
2017-Nov-18 19:23N 28°08' W 015°25'0 0.0
2017-Nov-18 18:53N 28°08' W 015°25'0 0.0
2017-Nov-18 18:26N 28°08' W 015°25'0 0.0
2017-Nov-18 17:44N 28°08' W 015°25'0 0.0
2017-Nov-18 17:29N 28°08' W 015°25'0 0.0
2017-Nov-18 16:56N 28°08' W 015°25'0 0.0
2017-Nov-18 16:29N 28°08' W 015°25'0 0.0
2017-Nov-18 15:59N 28°08' W 015°25'0 0.0
2017-Nov-18 15:29N 28°08' W 015°25'0 0.0
2017-Nov-18 14:59N 28°08' W 015°25'0 0.0
2017-Nov-18 14:29N 28°08' W 015°25'0 0.0
2017-Nov-18 13:59N 28°08' W 015°25'0 0.0
2017-Nov-18 13:29N 28°08' W 015°25'0 0.0
2017-Nov-18 12:59N 28°08' W 015°25'0 0.0
2017-Nov-18 12:29N 28°08' W 015°25'0 0.0
2017-Nov-18 11:59N 28°08' W 015°25'0 0.0
2017-Nov-18 11:29N 28°08' W 015°25'0 0.0
2017-Nov-18 10:35N 28°08' W 015°25'0 0.0
2017-Nov-18 10:20N 28°08' W 015°25'0 0.0
2017-Nov-18 09:20N 28°08' W 015°25'0 0.0
2017-Nov-18 08:53N 28°08' W 015°25'0 0.0
2017-Nov-18 08:20N 28°08' W 015°25'0 0.1
2017-Nov-18 08:00N 28°08' W 015°25'1 1.6
2017-Nov-18 07:30N 28°08' W 015°25'2 4.8
2017-Nov-18 07:00N 28°07' W 015°22'4 8.3
2017-Nov-18 06:30N 28°11' W 015°19'611.4
2017-Nov-18 06:00N 28°16' W 015°20'611.3
2017-Nov-18 05:30N 28°22' W 015°20'510.7
2017-Nov-18 05:00N 28°26' W 015°24'510.9
2017-Nov-18 04:30N 28°29' W 015°29'510.9
2017-Nov-18 04:00N 28°33' W 015°34'510.2
2017-Nov-18 03:31N 28°35' W 015°39'610.3
2017-Nov-18 02:56N 28°31' W 015°44'410.5
2017-Nov-18 02:31N 28°27' W 015°47'510.6
2017-Nov-18 02:01N 28°23' W 015°51'611.2
2017-Nov-18 01:30N 28°19' W 015°55'610.4
2017-Nov-18 00:57N 28°18' W 016°02'611.0
2017-Nov-18 00:26N 28°22' W 016°06'710.8
2017-Nov-17 23:49N 28°27' W 016°12'3 7.3
2017-Nov-17 23:28N 28°29' W 016°14'1 0.1
2017-Nov-17 16:38N 28°28' W 016°15'0 0.0
2017-Nov-17 15:03N 28°28' W 016°15'0 0.0
2017-Nov-17 14:43N 28°28' W 016°15'0 0.0
2017-Nov-17 14:25N 28°28' W 016°15'0 0.0
2017-Nov-17 12:58N 28°28' W 016°15'0 0.0
2017-Nov-17 12:28N 28°28' W 016°15'0 0.0
2017-Nov-17 11:28N 28°28' W 016°15'0 0.0
2017-Nov-17 11:00N 28°28' W 016°15'0 0.0
2017-Nov-17 10:18N 28°28' W 016°15'0 0.0
2017-Nov-17 09:51N 28°28' W 016°15'0 0.0
2017-Nov-17 09:18N 28°28' W 016°15'0 0.0
2017-Nov-17 08:51N 28°28' W 016°15'0 0.0
2017-Nov-17 08:06N 28°28' W 016°15'0 0.0
2017-Nov-17 07:51N 28°28' W 016°15'0 0.0
2017-Nov-17 07:24N 28°28' W 016°15'0 0.0
2017-Nov-17 06:58N 28°28' W 016°15'0 0.4
2017-Nov-17 06:29N 28°28' W 016°14'2 4.2
2017-Nov-17 06:00N 28°28' W 016°12'612.4
2017-Nov-17 05:30N 28°27' W 016°05'816.1
2017-Nov-17 05:00N 28°27' W 015°56'816.2
2017-Nov-17 04:30N 28°33' W 015°49'816.1
2017-Nov-17 04:00N 28°38' W 015°42'816.5
2017-Nov-17 03:30N 28°39' W 015°33'816.4
2017-Nov-17 03:00N 28°40' W 015°24'713.0
2017-Nov-17 02:30N 28°40' W 015°16'611.4
2017-Nov-17 02:00N 28°41' W 015°10'611.4
2017-Nov-17 01:30N 28°42' W 015°03'611.5
2017-Nov-17 01:00N 28°42' W 014°57'811.4
2017-Nov-17 00:20N 28°43' W 014°48'411.5
2017-Nov-16 23:57N 28°44' W 014°43'511.3
2017-Nov-16 23:30N 28°44' W 014°37'1511.1
2017-Nov-16 22:07N 28°46' W 014°20'110.8
2017-Nov-16 22:00N 28°46' W 014°19'611.0
2017-Nov-16 21:30N 28°47' W 014°12'1311.7
2017-Nov-16 20:22N 28°48' W 013°57'25 3.4
2017-Nov-16 13:14N 28°58' W 013°32'0 0.0
2017-Nov-16 12:56N 28°58' W 013°32'0 0.0
2017-Nov-16 12:26N 28°58' W 013°32'0 0.0
2017-Nov-16 11:53N 28°58' W 013°32'0 0.0
2017-Nov-16 10:23N 28°58' W 013°32'0 0.0
2017-Nov-16 08:59N 28°58' W 013°32'0 0.0
2017-Nov-16 08:28N 28°58' W 013°32'0 0.0
2017-Nov-16 07:57N 28°58' W 013°32'1 2.0
2017-Nov-16 07:30N 28°57' W 013°32'4 8.0
2017-Nov-16 07:00N 28°59' W 013°28'611.5
2017-Nov-16 06:30N 29°04' W 013°24'  
2017-Nov-14 00:43N 35°57' W 005°36'313.8
2017-Nov-14 00:30N 35°58' W 005°33'815.3
2017-Nov-14 00:00N 36°01' W 005°24'816.1
2017-Nov-13 23:30N 36°05' W 005°15'918.0
2017-Nov-13 23:00N 36°10' W 005°06'12 0.4
2017-Nov-12 15:16N 36°02' W 005°18'520.5
2017-Nov-12 15:01N 35°59' W 005°23'  
Track history (hours):
 
Tides and Currents Weather Stations Pressure Air Temp Water Temp Dewpoint Dewpoint Depression Visibility Wind Speed Wind Dir Waves Ship Positions

Thomson Dream

Last reported at 2017-Nov-20 00:26 UTC. Time now 2017-Nov-20 23:15 UTC.
Position N 28°48' W 015°51'.

Length 243 m; draft 7.6 m.

Type: Ship. MMSI: 248480975.

Date/timePositionNaut miles runAvg speedWind from/ knotsBaromVisibWave heightAir tempDewpointWater temp
2017-Nov-20 00:26N 28°48' W 015°51'716.3
2017-Nov-20 00:00N 28°48' W 015°43'917.1
2017-Nov-19 23:30N 28°48' W 015°33'917.2
2017-Nov-19 23:00N 28°48' W 015°23'917.1
2017-Nov-19 22:30N 28°49' W 015°13'816.8
2017-Nov-19 22:00N 28°49' W 015°04'31 1.6
2017-Nov-19 02:29N 28°25' W 014°41'816.5
2017-Nov-19 02:00N 28°20' W 014°49'815.9
2017-Nov-19 01:30N 28°13' W 014°53'714.8
2017-Nov-19 01:00N 28°07' W 014°57'611.5
2017-Nov-19 00:30N 28°06' W 015°03'612.8
2017-Nov-19 00:01N 28°07' W 015°10'816.7
2017-Nov-18 23:31N 28°07' W 015°20'5 9.7
2017-Nov-18 23:00N 28°08' W 015°25'1 1.2
2017-Nov-18 22:23N 28°08' W 015°25'0 0.0
2017-Nov-18 21:53N 28°08' W 015°25'0 0.0
2017-Nov-18 21:26N 28°08' W 015°25'0 0.0
2017-Nov-18 20:56N 28°08' W 015°25'0 0.0
2017-Nov-18 20:26N 28°08' W 015°25'0 0.0
2017-Nov-18 19:56N 28°08' W 015°25'0 0.0
2017-Nov-18 19:23N 28°08' W 015°25'0 0.0
2017-Nov-18 18:53N 28°08' W 015°25'0 0.0
2017-Nov-18 18:26N 28°08' W 015°25'0 0.0
2017-Nov-18 17:44N 28°08' W 015°25'0 0.0
2017-Nov-18 17:29N 28°08' W 015°25'0 0.0
2017-Nov-18 16:56N 28°08' W 015°25'0 0.0
2017-Nov-18 16:29N 28°08' W 015°25'0 0.0
2017-Nov-18 15:59N 28°08' W 015°25'0 0.0
2017-Nov-18 15:29N 28°08' W 015°25'0 0.0
2017-Nov-18 14:59N 28°08' W 015°25'0 0.0
2017-Nov-18 14:29N 28°08' W 015°25'0 0.0
2017-Nov-18 13:59N 28°08' W 015°25'0 0.0
2017-Nov-18 13:29N 28°08' W 015°25'0 0.0
2017-Nov-18 12:59N 28°08' W 015°25'0 0.0
2017-Nov-18 12:29N 28°08' W 015°25'0 0.0
2017-Nov-18 11:59N 28°08' W 015°25'0 0.0
2017-Nov-18 11:29N 28°08' W 015°25'0 0.0
2017-Nov-18 10:35N 28°08' W 015°25'0 0.0
2017-Nov-18 10:20N 28°08' W 015°25'0 0.0
2017-Nov-18 09:20N 28°08' W 015°25'0 0.0
2017-Nov-18 08:53N 28°08' W 015°25'0 0.0
2017-Nov-18 08:20N 28°08' W 015°25'0 0.1
2017-Nov-18 08:00N 28°08' W 015°25'1 1.6
2017-Nov-18 07:30N 28°08' W 015°25'2 4.8
2017-Nov-18 07:00N 28°07' W 015°22'4 8.3
2017-Nov-18 06:30N 28°11' W 015°19'611.4
2017-Nov-18 06:00N 28°16' W 015°20'611.3
2017-Nov-18 05:30N 28°22' W 015°20'510.7
2017-Nov-18 05:00N 28°26' W 015°24'510.9
2017-Nov-18 04:30N 28°29' W 015°29'510.9
2017-Nov-18 04:00N 28°33' W 015°34'510.2
2017-Nov-18 03:31N 28°35' W 015°39'610.3
2017-Nov-18 02:56N 28°31' W 015°44'410.5
2017-Nov-18 02:31N 28°27' W 015°47'510.6
2017-Nov-18 02:01N 28°23' W 015°51'611.2
2017-Nov-18 01:30N 28°19' W 015°55'610.4
2017-Nov-18 00:57N 28°18' W 016°02'611.0
2017-Nov-18 00:26N 28°22' W 016°06'710.8
2017-Nov-17 23:49N 28°27' W 016°12'3 7.3
2017-Nov-17 23:28N 28°29' W 016°14'1 0.1
2017-Nov-17 16:38N 28°28' W 016°15'0 0.0
2017-Nov-17 15:03N 28°28' W 016°15'0 0.0
2017-Nov-17 14:43N 28°28' W 016°15'0 0.0
2017-Nov-17 14:25N 28°28' W 016°15'0 0.0
2017-Nov-17 12:58N 28°28' W 016°15'0 0.0
2017-Nov-17 12:28N 28°28' W 016°15'0 0.0
2017-Nov-17 11:28N 28°28' W 016°15'0 0.0
2017-Nov-17 11:00N 28°28' W 016°15'0 0.0
2017-Nov-17 10:18N 28°28' W 016°15'0 0.0
2017-Nov-17 09:51N 28°28' W 016°15'0 0.0
2017-Nov-17 09:18N 28°28' W 016°15'0 0.0
2017-Nov-17 08:51N 28°28' W 016°15'0 0.0
2017-Nov-17 08:06N 28°28' W 016°15'0 0.0
2017-Nov-17 07:51N 28°28' W 016°15'0 0.0
2017-Nov-17 07:24N 28°28' W 016°15'0 0.0
2017-Nov-17 06:58N 28°28' W 016°15'0 0.4
2017-Nov-17 06:29N 28°28' W 016°14'2 4.2
2017-Nov-17 06:00N 28°28' W 016°12'612.4
2017-Nov-17 05:30N 28°27' W 016°05'816.1
2017-Nov-17 05:00N 28°27' W 015°56'816.2
2017-Nov-17 04:30N 28°33' W 015°49'816.1
2017-Nov-17 04:00N 28°38' W 015°42'816.5
2017-Nov-17 03:30N 28°39' W 015°33'816.4
2017-Nov-17 03:00N 28°40' W 015°24'713.0
2017-Nov-17 02:30N 28°40' W 015°16'611.4
2017-Nov-17 02:00N 28°41' W 015°10'611.4
2017-Nov-17 01:30N 28°42' W 015°03'611.5
2017-Nov-17 01:00N 28°42' W 014°57'811.4
2017-Nov-17 00:20N 28°43' W 014°48'411.5
2017-Nov-16 23:57N 28°44' W 014°43'511.3
2017-Nov-16 23:30N 28°44' W 014°37'1511.1
2017-Nov-16 22:07N 28°46' W 014°20'110.8
2017-Nov-16 22:00N 28°46' W 014°19'611.0
2017-Nov-16 21:30N 28°47' W 014°12'1311.7
2017-Nov-16 20:22N 28°48' W 013°57'25 3.4
2017-Nov-16 13:14N 28°58' W 013°32'0 0.0
2017-Nov-16 12:56N 28°58' W 013°32'0 0.0
2017-Nov-16 12:26N 28°58' W 013°32'0 0.0
2017-Nov-16 11:53N 28°58' W 013°32'0 0.0
2017-Nov-16 10:23N 28°58' W 013°32'0 0.0
2017-Nov-16 08:59N 28°58' W 013°32'0 0.0
2017-Nov-16 08:28N 28°58' W 013°32'0 0.0
2017-Nov-16 07:57N 28°58' W 013°32'1 2.0
2017-Nov-16 07:30N 28°57' W 013°32'4 8.0
2017-Nov-16 07:00N 28°59' W 013°28'611.5
2017-Nov-16 06:30N 29°04' W 013°24'  
2017-Nov-14 00:43N 35°57' W 005°36'313.8
2017-Nov-14 00:30N 35°58' W 005°33'815.3
2017-Nov-14 00:00N 36°01' W 005°24'816.1
2017-Nov-13 23:30N 36°05' W 005°15'918.0
2017-Nov-13 23:00N 36°10' W 005°06'12 0.4
2017-Nov-12 15:16N 36°02' W 005°18'520.5
2017-Nov-12 15:01N 35°59' W 005°23'  

Dump ship's entire track history